sensor_id;sensor_type;location;lat;lon;timestamp;P1;durP1;ratioP1;P2;durP2;ratioP2
11230;SDS011;5672;51.060;3.734;2022-12-10T00:02:25;55.57;;;31.20;;
11230;SDS011;5672;51.060;3.734;2022-12-10T00:04:51;58.50;;;31.03;;
11230;SDS011;5672;51.060;3.734;2022-12-10T00:07:17;52.63;;;30.43;;
11230;SDS011;5672;51.060;3.734;2022-12-10T00:09:43;51.97;;;30.60;;
11230;SDS011;5672;51.060;3.734;2022-12-10T00:12:09;54.07;;;30.67;;
11230;SDS011;5672;51.060;3.734;2022-12-10T00:14:34;49.03;;;28.90;;
11230;SDS011;5672;51.060;3.734;2022-12-10T00:17:00;50.33;;;30.73;;
11230;SDS011;5672;51.060;3.734;2022-12-10T00:19:26;50.97;;;29.47;;
11230;SDS011;5672;51.060;3.734;2022-12-10T00:21:52;52.77;;;30.77;;
11230;SDS011;5672;51.060;3.734;2022-12-10T00:24:18;53.80;;;29.90;;
11230;SDS011;5672;51.060;3.734;2022-12-10T00:26:44;52.73;;;29.47;;
11230;SDS011;5672;51.060;3.734;2022-12-10T00:29:11;52.60;;;29.33;;
11230;SDS011;5672;51.060;3.734;2022-12-10T00:31:37;52.20;;;29.87;;
11230;SDS011;5672;51.060;3.734;2022-12-10T00:34:05;54.33;;;30.03;;
11230;SDS011;5672;51.060;3.734;2022-12-10T00:36:32;54.57;;;31.27;;
11230;SDS011;5672;51.060;3.734;2022-12-10T00:38:59;53.93;;;31.03;;
11230;SDS011;5672;51.060;3.734;2022-12-10T00:41:25;52.40;;;30.73;;
11230;SDS011;5672;51.060;3.734;2022-12-10T00:43:51;56.07;;;30.83;;
11230;SDS011;5672;51.060;3.734;2022-12-10T00:46:17;53.83;;;30.97;;
11230;SDS011;5672;51.060;3.734;2022-12-10T00:48:44;54.90;;;30.87;;
11230;SDS011;5672;51.060;3.734;2022-12-10T00:51:11;56.70;;;32.00;;
11230;SDS011;5672;51.060;3.734;2022-12-10T00:53:38;59.87;;;33.23;;
11230;SDS011;5672;51.060;3.734;2022-12-10T00:56:05;60.40;;;33.80;;
11230;SDS011;5672;51.060;3.734;2022-12-10T00:58:31;57.63;;;32.80;;
11230;SDS011;5672;51.060;3.734;2022-12-10T01:03:33;60.47;;;32.17;;
11230;SDS011;5672;51.060;3.734;2022-12-10T01:06:07;61.20;;;33.67;;
11230;SDS011;5672;51.060;3.734;2022-12-10T01:08:33;57.53;;;31.67;;
11230;SDS011;5672;51.060;3.734;2022-12-10T01:10:59;65.23;;;33.83;;
11230;SDS011;5672;51.060;3.734;2022-12-10T01:13:25;59.90;;;34.17;;
11230;SDS011;5672;51.060;3.734;2022-12-10T01:15:51;60.37;;;33.03;;
11230;SDS011;5672;51.060;3.734;2022-12-10T01:18:17;62.50;;;33.07;;
11230;SDS011;5672;51.060;3.734;2022-12-10T01:20:43;57.83;;;32.07;;
11230;SDS011;5672;51.060;3.734;2022-12-10T01:23:09;54.93;;;32.57;;
11230;SDS011;5672;51.060;3.734;2022-12-10T01:25:35;61.43;;;35.23;;
11230;SDS011;5672;51.060;3.734;2022-12-10T01:28:01;64.20;;;35.00;;
11230;SDS011;5672;51.060;3.734;2022-12-10T01:30:27;60.70;;;33.80;;
11230;SDS011;5672;51.060;3.734;2022-12-10T01:32:53;58.93;;;32.87;;
11230;SDS011;5672;51.060;3.734;2022-12-10T01:35:19;55.47;;;32.43;;
11230;SDS011;5672;51.060;3.734;2022-12-10T01:37:45;56.97;;;32.77;;
11230;SDS011;5672;51.060;3.734;2022-12-10T01:40:11;61.03;;;34.07;;
11230;SDS011;5672;51.060;3.734;2022-12-10T01:42:37;58.07;;;32.77;;
11230;SDS011;5672;51.060;3.734;2022-12-10T01:45:05;60.27;;;33.13;;
11230;SDS011;5672;51.060;3.734;2022-12-10T01:47:31;62.10;;;33.63;;
11230;SDS011;5672;51.060;3.734;2022-12-10T01:49:57;63.10;;;34.07;;
11230;SDS011;5672;51.060;3.734;2022-12-10T01:52:23;67.57;;;35.77;;
11230;SDS011;5672;51.060;3.734;2022-12-10T01:54:49;58.17;;;33.33;;
11230;SDS011;5672;51.060;3.734;2022-12-10T01:57:22;61.07;;;34.30;;
11230;SDS011;5672;51.060;3.734;2022-12-10T01:59:49;64.40;;;33.60;;
11230;SDS011;5672;51.060;3.734;2022-12-10T02:02:26;60.87;;;35.10;;
11230;SDS011;5672;51.060;3.734;2022-12-10T02:07:48;65.87;;;35.67;;
11230;SDS011;5672;51.060;3.734;2022-12-10T02:17:52;61.07;;;33.43;;
11230;SDS011;5672;51.060;3.734;2022-12-10T02:20:30;57.73;;;32.97;;
11230;SDS011;5672;51.060;3.734;2022-12-10T02:23:01;60.57;;;32.10;;
11230;SDS011;5672;51.060;3.734;2022-12-10T02:25:50;59.37;;;33.20;;
11230;SDS011;5672;51.060;3.734;2022-12-10T02:30:56;58.43;;;30.50;;
11230;SDS011;5672;51.060;3.734;2022-12-10T02:33:22;57.83;;;30.83;;
11230;SDS011;5672;51.060;3.734;2022-12-10T02:35:49;52.43;;;30.37;;
11230;SDS011;5672;51.060;3.734;2022-12-10T02:38:37;55.47;;;30.33;;
11230;SDS011;5672;51.060;3.734;2022-12-10T02:41:03;54.83;;;29.90;;
11230;SDS011;5672;51.060;3.734;2022-12-10T02:43:30;55.80;;;30.40;;
11230;SDS011;5672;51.060;3.734;2022-12-10T02:45:56;53.83;;;28.93;;
11230;SDS011;5672;51.060;3.734;2022-12-10T02:48:23;49.90;;;28.37;;
11230;SDS011;5672;51.060;3.734;2022-12-10T02:50:49;47.80;;;27.83;;
11230;SDS011;5672;51.060;3.734;2022-12-10T02:53:15;50.73;;;27.97;;
11230;SDS011;5672;51.060;3.734;2022-12-10T02:58:15;49.77;;;28.80;;
11230;SDS011;5672;51.060;3.734;2022-12-10T03:00:55;46.20;;;25.87;;
11230;SDS011;5672;51.060;3.734;2022-12-10T03:03:25;47.80;;;27.77;;
11230;SDS011;5672;51.060;3.734;2022-12-10T03:11:23;45.27;;;26.37;;
11230;SDS011;5672;51.060;3.734;2022-12-10T03:14:03;44.03;;;24.40;;
11230;SDS011;5672;51.060;3.734;2022-12-10T03:16:37;44.63;;;26.10;;
11230;SDS011;5672;51.060;3.734;2022-12-10T03:19:05;47.23;;;26.60;;
11230;SDS011;5672;51.060;3.734;2022-12-10T03:21:32;46.10;;;25.60;;
11230;SDS011;5672;51.060;3.734;2022-12-10T03:23:58;45.73;;;25.87;;
11230;SDS011;5672;51.060;3.734;2022-12-10T03:26:25;43.83;;;24.77;;
11230;SDS011;5672;51.060;3.734;2022-12-10T03:28:54;46.73;;;26.00;;
11230;SDS011;5672;51.060;3.734;2022-12-10T03:31:22;47.60;;;26.23;;
11230;SDS011;5672;51.060;3.734;2022-12-10T03:33:48;42.97;;;24.23;;
11230;SDS011;5672;51.060;3.734;2022-12-10T03:36:14;48.23;;;25.93;;
11230;SDS011;5672;51.060;3.734;2022-12-10T03:38:41;43.30;;;24.80;;
11230;SDS011;5672;51.060;3.734;2022-12-10T03:41:07;44.57;;;26.17;;
11230;SDS011;5672;51.060;3.734;2022-12-10T03:43:33;45.20;;;24.23;;
11230;SDS011;5672;51.060;3.734;2022-12-10T03:46:00;44.80;;;24.93;;
11230;SDS011;5672;51.060;3.734;2022-12-10T03:48:26;47.53;;;25.00;;
11230;SDS011;5672;51.060;3.734;2022-12-10T03:50:52;46.77;;;25.20;;
11230;SDS011;5672;51.060;3.734;2022-12-10T03:53:18;47.50;;;24.17;;
11230;SDS011;5672;51.060;3.734;2022-12-10T03:55:44;47.43;;;25.33;;
11230;SDS011;5672;51.060;3.734;2022-12-10T03:58:09;48.27;;;25.07;;
11230;SDS011;5672;51.060;3.734;2022-12-10T04:00:35;51.37;;;25.80;;
11230;SDS011;5672;51.060;3.734;2022-12-10T04:03:01;48.60;;;26.10;;
11230;SDS011;5672;51.060;3.734;2022-12-10T04:05:27;42.13;;;24.17;;
11230;SDS011;5672;51.060;3.734;2022-12-10T04:07:53;48.13;;;25.53;;
11230;SDS011;5672;51.060;3.734;2022-12-10T04:10:19;42.83;;;24.13;;
11230;SDS011;5672;51.060;3.734;2022-12-10T04:12:45;41.77;;;23.77;;
11230;SDS011;5672;51.060;3.734;2022-12-10T04:15:31;44.00;;;24.77;;
11230;SDS011;5672;51.060;3.734;2022-12-10T04:18:16;44.03;;;25.43;;
11230;SDS011;5672;51.060;3.734;2022-12-10T04:20:42;42.20;;;24.50;;
11230;SDS011;5672;51.060;3.734;2022-12-10T04:23:27;44.13;;;24.33;;
11230;SDS011;5672;51.060;3.734;2022-12-10T04:26:25;45.87;;;24.83;;
11230;SDS011;5672;51.060;3.734;2022-12-10T04:29:10;42.23;;;23.70;;
11230;SDS011;5672;51.060;3.734;2022-12-10T04:31:36;41.00;;;23.50;;
11230;SDS011;5672;51.060;3.734;2022-12-10T04:34:02;44.43;;;23.87;;
11230;SDS011;5672;51.060;3.734;2022-12-10T04:36:28;40.30;;;22.50;;
11230;SDS011;5672;51.060;3.734;2022-12-10T04:38:54;39.97;;;23.50;;
11230;SDS011;5672;51.060;3.734;2022-12-10T04:41:20;45.43;;;23.43;;
11230;SDS011;5672;51.060;3.734;2022-12-10T04:43:46;42.40;;;23.70;;
11230;SDS011;5672;51.060;3.734;2022-12-10T04:46:12;39.10;;;22.83;;
11230;SDS011;5672;51.060;3.734;2022-12-10T04:48:37;41.93;;;23.53;;
11230;SDS011;5672;51.060;3.734;2022-12-10T04:51:04;42.20;;;23.90;;
11230;SDS011;5672;51.060;3.734;2022-12-10T04:53:30;40.10;;;23.27;;
11230;SDS011;5672;51.060;3.734;2022-12-10T04:55:56;44.00;;;23.63;;
11230;SDS011;5672;51.060;3.734;2022-12-10T04:58:22;40.77;;;24.43;;
11230;SDS011;5672;51.060;3.734;2022-12-10T05:00:48;44.20;;;22.70;;
11230;SDS011;5672;51.060;3.734;2022-12-10T05:03:14;42.67;;;24.07;;
11230;SDS011;5672;51.060;3.734;2022-12-10T05:05:40;40.80;;;22.70;;
11230;SDS011;5672;51.060;3.734;2022-12-10T05:08:06;36.60;;;21.67;;
11230;SDS011;5672;51.060;3.734;2022-12-10T05:10:34;34.60;;;20.37;;
11230;SDS011;5672;51.060;3.734;2022-12-10T05:13:00;38.03;;;22.67;;
11230;SDS011;5672;51.060;3.734;2022-12-10T05:15:26;38.23;;;22.90;;
11230;SDS011;5672;51.060;3.734;2022-12-10T05:17:52;37.23;;;21.93;;
11230;SDS011;5672;51.060;3.734;2022-12-10T05:20:18;41.60;;;23.73;;
11230;SDS011;5672;51.060;3.734;2022-12-10T05:22:44;41.13;;;22.27;;
11230;SDS011;5672;51.060;3.734;2022-12-10T05:25:28;40.73;;;22.40;;
11230;SDS011;5672;51.060;3.734;2022-12-10T05:27:54;43.33;;;24.37;;
11230;SDS011;5672;51.060;3.734;2022-12-10T05:30:20;43.27;;;23.43;;
11230;SDS011;5672;51.060;3.734;2022-12-10T05:32:46;42.63;;;22.50;;
11230;SDS011;5672;51.060;3.734;2022-12-10T05:35:12;42.50;;;21.93;;
11230;SDS011;5672;51.060;3.734;2022-12-10T05:37:38;38.63;;;21.73;;
11230;SDS011;5672;51.060;3.734;2022-12-10T05:40:04;40.60;;;22.83;;
11230;SDS011;5672;51.060;3.734;2022-12-10T05:42:30;40.20;;;21.90;;
11230;SDS011;5672;51.060;3.734;2022-12-10T05:44:56;39.20;;;22.37;;
11230;SDS011;5672;51.060;3.734;2022-12-10T05:47:22;39.00;;;22.27;;
11230;SDS011;5672;51.060;3.734;2022-12-10T05:49:48;45.10;;;23.17;;
11230;SDS011;5672;51.060;3.734;2022-12-10T05:52:14;44.50;;;24.47;;
11230;SDS011;5672;51.060;3.734;2022-12-10T05:54:40;43.07;;;23.17;;
11230;SDS011;5672;51.060;3.734;2022-12-10T05:57:06;44.10;;;23.70;;
11230;SDS011;5672;51.060;3.734;2022-12-10T05:59:32;44.17;;;23.07;;
11230;SDS011;5672;51.060;3.734;2022-12-10T06:01:58;41.90;;;23.40;;
11230;SDS011;5672;51.060;3.734;2022-12-10T06:04:24;40.10;;;22.47;;
11230;SDS011;5672;51.060;3.734;2022-12-10T06:06:50;38.93;;;22.43;;
11230;SDS011;5672;51.060;3.734;2022-12-10T06:09:16;46.20;;;24.80;;
11230;SDS011;5672;51.060;3.734;2022-12-10T06:11:42;45.73;;;24.17;;
11230;SDS011;5672;51.060;3.734;2022-12-10T06:14:08;43.40;;;24.10;;
11230;SDS011;5672;51.060;3.734;2022-12-10T06:16:34;41.77;;;23.70;;
11230;SDS011;5672;51.060;3.734;2022-12-10T06:19:00;40.40;;;24.40;;
11230;SDS011;5672;51.060;3.734;2022-12-10T06:21:26;42.47;;;22.17;;
11230;SDS011;5672;51.060;3.734;2022-12-10T06:23:52;45.27;;;24.20;;
11230;SDS011;5672;51.060;3.734;2022-12-10T06:26:20;42.37;;;23.00;;
11230;SDS011;5672;51.060;3.734;2022-12-10T06:28:46;41.30;;;23.33;;
11230;SDS011;5672;51.060;3.734;2022-12-10T06:31:12;44.53;;;23.20;;
11230;SDS011;5672;51.060;3.734;2022-12-10T06:33:38;40.67;;;22.50;;
11230;SDS011;5672;51.060;3.734;2022-12-10T06:36:05;44.73;;;24.33;;
11230;SDS011;5672;51.060;3.734;2022-12-10T06:38:31;40.97;;;23.03;;
11230;SDS011;5672;51.060;3.734;2022-12-10T06:40:57;43.37;;;23.33;;
11230;SDS011;5672;51.060;3.734;2022-12-10T06:43:23;36.90;;;22.23;;
11230;SDS011;5672;51.060;3.734;2022-12-10T06:45:49;41.83;;;21.30;;
11230;SDS011;5672;51.060;3.734;2022-12-10T06:48:15;43.40;;;22.53;;
11230;SDS011;5672;51.060;3.734;2022-12-10T06:50:41;38.33;;;22.40;;
11230;SDS011;5672;51.060;3.734;2022-12-10T06:53:07;43.13;;;23.27;;
11230;SDS011;5672;51.060;3.734;2022-12-10T06:55:33;41.80;;;22.97;;
11230;SDS011;5672;51.060;3.734;2022-12-10T06:58:01;38.47;;;21.97;;
11230;SDS011;5672;51.060;3.734;2022-12-10T07:00:27;37.97;;;20.53;;
11230;SDS011;5672;51.060;3.734;2022-12-10T07:02:53;38.70;;;21.97;;
11230;SDS011;5672;51.060;3.734;2022-12-10T07:05:19;38.33;;;21.70;;
11230;SDS011;5672;51.060;3.734;2022-12-10T07:07:45;37.33;;;20.43;;
11230;SDS011;5672;51.060;3.734;2022-12-10T07:10:11;38.13;;;22.00;;
11230;SDS011;5672;51.060;3.734;2022-12-10T07:12:37;41.77;;;22.90;;
11230;SDS011;5672;51.060;3.734;2022-12-10T07:15:03;39.93;;;22.43;;
11230;SDS011;5672;51.060;3.734;2022-12-10T07:17:29;38.73;;;21.60;;
11230;SDS011;5672;51.060;3.734;2022-12-10T07:19:55;38.23;;;20.30;;
11230;SDS011;5672;51.060;3.734;2022-12-10T07:22:21;37.60;;;21.63;;
11230;SDS011;5672;51.060;3.734;2022-12-10T07:24:47;38.20;;;22.03;;
11230;SDS011;5672;51.060;3.734;2022-12-10T07:27:14;42.63;;;22.43;;
11230;SDS011;5672;51.060;3.734;2022-12-10T07:29:40;41.97;;;23.53;;
11230;SDS011;5672;51.060;3.734;2022-12-10T07:32:06;41.87;;;22.73;;
11230;SDS011;5672;51.060;3.734;2022-12-10T07:34:31;36.50;;;21.13;;
11230;SDS011;5672;51.060;3.734;2022-12-10T07:36:57;40.87;;;21.90;;
11230;SDS011;5672;51.060;3.734;2022-12-10T07:39:23;39.63;;;22.00;;
11230;SDS011;5672;51.060;3.734;2022-12-10T07:41:50;41.37;;;22.27;;
11230;SDS011;5672;51.060;3.734;2022-12-10T07:44:20;36.33;;;20.80;;
11230;SDS011;5672;51.060;3.734;2022-12-10T07:46:47;41.53;;;21.77;;
11230;SDS011;5672;51.060;3.734;2022-12-10T07:49:14;44.30;;;23.07;;
11230;SDS011;5672;51.060;3.734;2022-12-10T07:51:50;38.83;;;22.57;;
11230;SDS011;5672;51.060;3.734;2022-12-10T07:54:16;43.40;;;22.67;;
11230;SDS011;5672;51.060;3.734;2022-12-10T07:56:43;46.43;;;23.53;;
11230;SDS011;5672;51.060;3.734;2022-12-10T07:59:09;42.87;;;22.80;;
11230;SDS011;5672;51.060;3.734;2022-12-10T08:01:35;47.53;;;24.27;;
11230;SDS011;5672;51.060;3.734;2022-12-10T08:04:01;43.23;;;22.03;;
11230;SDS011;5672;51.060;3.734;2022-12-10T08:06:28;44.58;;;26.10;;
11230;SDS011;5672;51.060;3.734;2022-12-10T08:08:54;43.60;;;24.27;;
11230;SDS011;5672;51.060;3.734;2022-12-10T08:11:20;42.87;;;23.10;;
11230;SDS011;5672;51.060;3.734;2022-12-10T08:13:46;41.40;;;22.50;;
11230;SDS011;5672;51.060;3.734;2022-12-10T08:16:14;40.80;;;23.63;;
11230;SDS011;5672;51.060;3.734;2022-12-10T08:18:40;43.23;;;24.53;;
11230;SDS011;5672;51.060;3.734;2022-12-10T08:21:16;40.50;;;21.33;;
11230;SDS011;5672;51.060;3.734;2022-12-10T08:23:43;40.83;;;22.23;;
11230;SDS011;5672;51.060;3.734;2022-12-10T08:26:11;42.50;;;23.13;;
11230;SDS011;5672;51.060;3.734;2022-12-10T08:28:37;46.63;;;22.73;;
11230;SDS011;5672;51.060;3.734;2022-12-10T08:31:03;44.23;;;24.07;;
11230;SDS011;5672;51.060;3.734;2022-12-10T08:33:32;45.77;;;23.80;;
11230;SDS011;5672;51.060;3.734;2022-12-10T08:35:58;47.23;;;24.77;;
11230;SDS011;5672;51.060;3.734;2022-12-10T08:38:25;51.13;;;25.27;;
11230;SDS011;5672;51.060;3.734;2022-12-10T08:40:51;51.93;;;25.10;;
11230;SDS011;5672;51.060;3.734;2022-12-10T08:43:17;50.67;;;25.73;;
11230;SDS011;5672;51.060;3.734;2022-12-10T08:45:43;47.47;;;24.90;;
11230;SDS011;5672;51.060;3.734;2022-12-10T08:48:09;53.57;;;27.07;;
11230;SDS011;5672;51.060;3.734;2022-12-10T08:50:35;53.97;;;26.90;;
11230;SDS011;5672;51.060;3.734;2022-12-10T08:53:01;50.17;;;26.30;;
11230;SDS011;5672;51.060;3.734;2022-12-10T08:55:27;55.93;;;26.87;;
11230;SDS011;5672;51.060;3.734;2022-12-10T08:57:53;55.00;;;26.80;;
11230;SDS011;5672;51.060;3.734;2022-12-10T09:00:19;53.83;;;26.20;;
11230;SDS011;5672;51.060;3.734;2022-12-10T09:02:45;49.47;;;24.43;;
11230;SDS011;5672;51.060;3.734;2022-12-10T09:05:11;46.50;;;24.90;;
11230;SDS011;5672;51.060;3.734;2022-12-10T09:07:38;44.50;;;24.27;;
11230;SDS011;5672;51.060;3.734;2022-12-10T09:10:04;52.50;;;25.87;;
11230;SDS011;5672;51.060;3.734;2022-12-10T09:12:30;52.33;;;25.20;;
11230;SDS011;5672;51.060;3.734;2022-12-10T09:14:56;44.33;;;23.63;;
11230;SDS011;5672;51.060;3.734;2022-12-10T09:17:22;41.27;;;23.73;;
11230;SDS011;5672;51.060;3.734;2022-12-10T09:19:48;40.67;;;22.07;;
11230;SDS011;5672;51.060;3.734;2022-12-10T09:22:14;42.87;;;23.77;;
11230;SDS011;5672;51.060;3.734;2022-12-10T09:24:40;39.47;;;22.40;;
11230;SDS011;5672;51.060;3.734;2022-12-10T09:27:06;38.73;;;21.97;;
11230;SDS011;5672;51.060;3.734;2022-12-10T09:29:32;45.53;;;23.07;;
11230;SDS011;5672;51.060;3.734;2022-12-10T09:31:57;42.80;;;23.67;;
11230;SDS011;5672;51.060;3.734;2022-12-10T09:34:23;45.03;;;25.13;;
11230;SDS011;5672;51.060;3.734;2022-12-10T09:36:49;41.10;;;23.73;;
11230;SDS011;5672;51.060;3.734;2022-12-10T09:39:15;45.10;;;24.27;;
11230;SDS011;5672;51.060;3.734;2022-12-10T09:44:22;44.83;;;23.07;;
11230;SDS011;5672;51.060;3.734;2022-12-10T09:46:52;45.10;;;23.23;;
11230;SDS011;5672;51.060;3.734;2022-12-10T09:51:45;42.87;;;22.63;;
11230;SDS011;5672;51.060;3.734;2022-12-10T09:54:15;42.20;;;22.77;;
11230;SDS011;5672;51.060;3.734;2022-12-10T09:56:44;42.37;;;22.07;;
11230;SDS011;5672;51.060;3.734;2022-12-10T10:01:59;44.80;;;21.40;;
11230;SDS011;5672;51.060;3.734;2022-12-10T10:04:27;41.03;;;21.40;;
11230;SDS011;5672;51.060;3.734;2022-12-10T10:06:53;39.53;;;21.23;;
11230;SDS011;5672;51.060;3.734;2022-12-10T10:09:19;39.17;;;21.60;;
11230;SDS011;5672;51.060;3.734;2022-12-10T10:11:46;41.93;;;22.10;;
11230;SDS011;5672;51.060;3.734;2022-12-10T10:14:14;40.43;;;23.00;;
11230;SDS011;5672;51.060;3.734;2022-12-10T10:17:01;42.77;;;21.67;;
11230;SDS011;5672;51.060;3.734;2022-12-10T10:19:28;42.60;;;21.60;;
11230;SDS011;5672;51.060;3.734;2022-12-10T10:21:55;39.80;;;22.17;;
11230;SDS011;5672;51.060;3.734;2022-12-10T10:24:22;41.67;;;21.53;;
11230;SDS011;5672;51.060;3.734;2022-12-10T10:26:57;46.10;;;22.60;;
11230;SDS011;5672;51.060;3.734;2022-12-10T10:29:25;41.23;;;21.87;;
11230;SDS011;5672;51.060;3.734;2022-12-10T10:32:10;41.33;;;21.27;;
11230;SDS011;5672;51.060;3.734;2022-12-10T10:34:36;43.10;;;19.93;;
11230;SDS011;5672;51.060;3.734;2022-12-10T10:37:04;43.60;;;20.93;;
11230;SDS011;5672;51.060;3.734;2022-12-10T10:39:31;42.97;;;20.93;;
11230;SDS011;5672;51.060;3.734;2022-12-10T10:41:58;40.77;;;22.20;;
11230;SDS011;5672;51.060;3.734;2022-12-10T10:44:28;41.90;;;20.83;;
11230;SDS011;5672;51.060;3.734;2022-12-10T10:46:59;46.07;;;22.10;;
11230;SDS011;5672;51.060;3.734;2022-12-10T10:49:26;41.27;;;20.73;;
11230;SDS011;5672;51.060;3.734;2022-12-10T10:51:53;36.77;;;19.97;;
11230;SDS011;5672;51.060;3.734;2022-12-10T10:54:31;41.27;;;20.47;;
11230;SDS011;5672;51.060;3.734;2022-12-10T10:56:57;36.20;;;19.70;;
11230;SDS011;5672;51.060;3.734;2022-12-10T10:59:30;35.83;;;19.30;;
11230;SDS011;5672;51.060;3.734;2022-12-10T11:01:59;37.13;;;19.80;;
11230;SDS011;5672;51.060;3.734;2022-12-10T11:04:31;34.67;;;18.93;;
11230;SDS011;5672;51.060;3.734;2022-12-10T11:07:03;36.63;;;17.50;;
11230;SDS011;5672;51.060;3.734;2022-12-10T11:09:30;33.63;;;17.47;;
11230;SDS011;5672;51.060;3.734;2022-12-10T11:11:58;54.72;;;23.40;;
11230;SDS011;5672;51.060;3.734;2022-12-10T11:17:01;43.10;;;19.80;;
11230;SDS011;5672;51.060;3.734;2022-12-10T11:19:27;41.23;;;19.90;;
11230;SDS011;5672;51.060;3.734;2022-12-10T11:21:53;36.85;;;19.50;;
11230;SDS011;5672;51.060;3.734;2022-12-10T11:24:19;44.17;;;23.50;;
11230;SDS011;5672;51.060;3.734;2022-12-10T11:37:05;42.67;;;24.53;;
11230;SDS011;5672;51.060;3.734;2022-12-10T11:42:05;42.27;;;23.87;;
11230;SDS011;5672;51.060;3.734;2022-12-10T11:47:37;34.27;;;19.43;;
11230;SDS011;5672;51.060;3.734;2022-12-10T11:55:29;29.93;;;16.23;;
11230;SDS011;5672;51.060;3.734;2022-12-10T12:00:25;34.57;;;18.53;;
11230;SDS011;5672;51.060;3.734;2022-12-10T12:03:02;28.50;;;16.53;;
11230;SDS011;5672;51.060;3.734;2022-12-10T12:11:19;28.47;;;16.70;;
11230;SDS011;5672;51.060;3.734;2022-12-10T12:16:02;30.90;;;17.93;;
11230;SDS011;5672;51.060;3.734;2022-12-10T12:20:57;181.20;;;57.67;;
11230;SDS011;5672;51.060;3.734;2022-12-10T12:23:28;83.87;;;37.77;;
11230;SDS011;5672;51.060;3.734;2022-12-10T12:25:57;81.90;;;36.13;;
11230;SDS011;5672;51.060;3.734;2022-12-10T12:28:42;57.93;;;27.30;;
11230;SDS011;5672;51.060;3.734;2022-12-10T12:31:13;41.17;;;20.90;;
11230;SDS011;5672;51.060;3.734;2022-12-10T12:33:42;34.17;;;19.67;;
11230;SDS011;5672;51.060;3.734;2022-12-10T12:36:12;36.10;;;18.43;;
11230;SDS011;5672;51.060;3.734;2022-12-10T12:41:17;29.77;;;17.27;;
11230;SDS011;5672;51.060;3.734;2022-12-10T12:46:39;80.03;;;32.10;;
11230;SDS011;5672;51.060;3.734;2022-12-10T12:49:18;66.57;;;35.70;;
11230;SDS011;5672;51.060;3.734;2022-12-10T12:52:48;46.23;;;25.90;;
11230;SDS011;5672;51.060;3.734;2022-12-10T12:54:42;64.50;;;35.17;;
11230;SDS011;5672;51.060;3.734;2022-12-10T13:05:03;84.93;;;39.40;;
11230;SDS011;5672;51.060;3.734;2022-12-10T13:07:31;50.90;;;27.23;;
11230;SDS011;5672;51.060;3.734;2022-12-10T13:12:45;38.43;;;20.37;;
11230;SDS011;5672;51.060;3.734;2022-12-10T13:15:17;33.53;;;19.67;;
11230;SDS011;5672;51.060;3.734;2022-12-10T13:22:55;36.70;;;20.87;;
11230;SDS011;5672;51.060;3.734;2022-12-10T13:25:36;36.17;;;21.30;;
11230;SDS011;5672;51.060;3.734;2022-12-10T13:28:16;36.50;;;20.77;;
11230;SDS011;5672;51.060;3.734;2022-12-10T13:30:42;42.37;;;20.87;;
11230;SDS011;5672;51.060;3.734;2022-12-10T13:33:15;37.20;;;20.17;;
11230;SDS011;5672;51.060;3.734;2022-12-10T13:35:49;37.87;;;18.37;;
11230;SDS011;5672;51.060;3.734;2022-12-10T13:38:18;35.10;;;19.67;;
11230;SDS011;5672;51.060;3.734;2022-12-10T13:40:49;30.90;;;18.60;;
11230;SDS011;5672;51.060;3.734;2022-12-10T13:43:40;34.13;;;18.77;;
11230;SDS011;5672;51.060;3.734;2022-12-10T13:48:56;32.07;;;18.47;;
11230;SDS011;5672;51.060;3.734;2022-12-10T13:59:29;32.40;;;17.87;;
11230;SDS011;5672;51.060;3.734;2022-12-10T14:06:37;36.40;;;19.03;;
11230;SDS011;5672;51.060;3.734;2022-12-10T14:09:06;28.80;;;17.73;;
11230;SDS011;5672;51.060;3.734;2022-12-10T14:11:37;29.77;;;19.00;;
11230;SDS011;5672;51.060;3.734;2022-12-10T14:14:04;32.63;;;18.87;;
11230;SDS011;5672;51.060;3.734;2022-12-10T14:16:31;42.60;;;20.23;;
11230;SDS011;5672;51.060;3.734;2022-12-10T14:18:59;30.50;;;18.33;;
11230;SDS011;5672;51.060;3.734;2022-12-10T14:21:27;32.43;;;18.40;;
11230;SDS011;5672;51.060;3.734;2022-12-10T14:23:56;33.40;;;19.23;;
11230;SDS011;5672;51.060;3.734;2022-12-10T14:26:27;32.60;;;19.60;;
11230;SDS011;5672;51.060;3.734;2022-12-10T14:28:57;30.73;;;20.13;;
11230;SDS011;5672;51.060;3.734;2022-12-10T14:31:26;31.90;;;19.20;;
11230;SDS011;5672;51.060;3.734;2022-12-10T14:33:52;30.90;;;18.07;;
11230;SDS011;5672;51.060;3.734;2022-12-10T14:36:28;27.13;;;16.90;;
11230;SDS011;5672;51.060;3.734;2022-12-10T14:38:55;30.43;;;18.73;;
11230;SDS011;5672;51.060;3.734;2022-12-10T14:41:22;27.70;;;18.10;;
11230;SDS011;5672;51.060;3.734;2022-12-10T14:43:48;26.57;;;18.20;;
11230;SDS011;5672;51.060;3.734;2022-12-10T14:46:17;26.90;;;18.00;;
11230;SDS011;5672;51.060;3.734;2022-12-10T14:48:46;26.30;;;17.53;;
11230;SDS011;5672;51.060;3.734;2022-12-10T14:51:15;31.83;;;17.97;;
11230;SDS011;5672;51.060;3.734;2022-12-10T14:53:41;23.33;;;17.03;;
11230;SDS011;5672;51.060;3.734;2022-12-10T14:56:08;26.23;;;17.17;;
11230;SDS011;5672;51.060;3.734;2022-12-10T14:58:43;26.60;;;17.53;;
11230;SDS011;5672;51.060;3.734;2022-12-10T15:01:15;28.53;;;18.20;;
11230;SDS011;5672;51.060;3.734;2022-12-10T15:03:43;27.67;;;17.50;;
11230;SDS011;5672;51.060;3.734;2022-12-10T15:06:12;27.67;;;17.57;;
11230;SDS011;5672;51.060;3.734;2022-12-10T15:08:41;27.20;;;17.37;;
11230;SDS011;5672;51.060;3.734;2022-12-10T15:11:10;28.30;;;17.63;;
11230;SDS011;5672;51.060;3.734;2022-12-10T15:13:40;27.53;;;17.13;;
11230;SDS011;5672;51.060;3.734;2022-12-10T15:16:15;29.67;;;17.50;;
11230;SDS011;5672;51.060;3.734;2022-12-10T15:18:41;29.63;;;17.63;;
11230;SDS011;5672;51.060;3.734;2022-12-10T15:21:15;25.27;;;15.93;;
11230;SDS011;5672;51.060;3.734;2022-12-10T15:23:42;26.50;;;18.67;;
11230;SDS011;5672;51.060;3.734;2022-12-10T15:28:39;25.30;;;17.47;;
11230;SDS011;5672;51.060;3.734;2022-12-10T15:33:52;28.10;;;19.60;;
11230;SDS011;5672;51.060;3.734;2022-12-10T15:36:39;35.23;;;23.70;;
11230;SDS011;5672;51.060;3.734;2022-12-10T15:41:41;29.13;;;21.40;;
11230;SDS011;5672;51.060;3.734;2022-12-10T15:44:27;32.40;;;19.60;;
11230;SDS011;5672;51.060;3.734;2022-12-10T15:49:27;24.90;;;16.97;;
11230;SDS011;5672;51.060;3.734;2022-12-10T15:51:53;26.20;;;17.40;;
11230;SDS011;5672;51.060;3.734;2022-12-10T15:54:23;27.07;;;17.83;;
11230;SDS011;5672;51.060;3.734;2022-12-10T15:56:51;23.10;;;16.73;;
11230;SDS011;5672;51.060;3.734;2022-12-10T15:59:17;24.53;;;17.73;;
11230;SDS011;5672;51.060;3.734;2022-12-10T16:01:43;22.47;;;16.30;;
11230;SDS011;5672;51.060;3.734;2022-12-10T16:04:10;27.73;;;17.40;;
11230;SDS011;5672;51.060;3.734;2022-12-10T16:06:36;27.20;;;17.93;;
11230;SDS011;5672;51.060;3.734;2022-12-10T16:09:02;28.73;;;18.03;;
11230;SDS011;5672;51.060;3.734;2022-12-10T16:11:28;23.80;;;16.37;;
11230;SDS011;5672;51.060;3.734;2022-12-10T16:13:54;23.70;;;17.00;;
11230;SDS011;5672;51.060;3.734;2022-12-10T16:16:21;26.23;;;17.33;;
11230;SDS011;5672;51.060;3.734;2022-12-10T16:18:48;27.80;;;17.67;;
11230;SDS011;5672;51.060;3.734;2022-12-10T16:21:14;28.10;;;18.57;;
11230;SDS011;5672;51.060;3.734;2022-12-10T16:23:40;27.90;;;19.27;;
11230;SDS011;5672;51.060;3.734;2022-12-10T16:26:16;33.63;;;21.10;;
11230;SDS011;5672;51.060;3.734;2022-12-10T16:28:43;25.67;;;17.37;;
11230;SDS011;5672;51.060;3.734;2022-12-10T16:31:10;30.07;;;17.67;;
11230;SDS011;5672;51.060;3.734;2022-12-10T16:33:36;27.57;;;18.97;;
11230;SDS011;5672;51.060;3.734;2022-12-10T16:36:02;25.13;;;18.00;;